PST,Max TemperatureF,Mean TemperatureF,Min TemperatureF,Max Dew PointF,MeanDew PointF,Min DewpointF,Max Humidity, Mean Humidity, Min Humidity, Max Sea Level PressureIn, Mean Sea Level PressureIn, Min Sea Level PressureIn, Max VisibilityMiles, Mean VisibilityMiles, Min VisibilityMiles, Max Wind SpeedMPH, Mean Wind SpeedMPH, Max Gust SpeedMPH,PrecipitationIn, CloudCover, Events, WindDirDegrees
2013-1-1,41,34,28,37,33,27,100,96,87,30.50,30.41,30.34,10,8,2,8,1,,0.00,5,,39
2013-1-2,35,30,24,34,29,25,100,98,92,30.33,30.24,30.17,10,3,0,6,1,,0.00,5,Fog,102
2013-1-3,39,29,19,36,29,18,100,92,65,30.19,30.14,30.10,10,9,2,7,1,,0.31,4,Rain,9
2013-1-4,45,40,35,45,39,35,100,99,93,30.31,30.22,30.15,10,8,2,6,0,,0.10,7,Rain,338
2013-1-5,43,40,37,42,39,37,100,97,93,30.18,30.14,30.10,10,9,4,9,2,,0.11,8,Rain,277
2013-1-6,44,40,37,43,40,37,100,98,87,30.18,30.11,29.97,10,10,4,7,2,,0.36,8,Rain,232
2013-1-7,48,42,37,48,43,37,100,94,87,30.16,29.96,29.81,10,10,8,21,9,36,0.38,7,Rain,233
2013-1-8,51,45,39,49,44,37,100,95,87,30.16,29.94,29.73,10,10,8,24,8,34,0.83,8,Rain,218
2013-1-9,46,38,30,43,37,31,100,92,82,29.94,29.79,29.68,10,10,10,18,12,30,0.67,4,Rain,233
2013-1-10,37,34,30,34,32,30,100,97,86,30.12,30.04,29.92,10,8,2,8,3,,0.00,8,,239
2013-1-11,37,32,26,34,28,25,100,88,62,30.32,30.23,30.10,10,8,2,7,1,,0.00,5,,117
2013-1-12,36,30,24,30,27,24,100,90,64,30.43,30.36,30.30,10,7,1,6,1,,0.00,6,,38
2013-1-13,36,30,24,29,26,23,100,85,67,30.49,30.45,30.42,10,10,5,4,0,,0.00,4,,110
2013-1-14,33,27,21,30,27,19,100,92,81,30.57,30.51,30.47,10,10,10,5,0,,0.00,6,,27
2013-1-15,39,32,24,33,28,23,100,92,79,30.71,30.65,30.57,10,8,1,0,0,,0.00,6,,-1
2013-1-16,34,26,19,34,27,18,100,97,92,30.68,30.57,30.49,10,5,0,4,0,,0.00,2,Fog,103
2013-1-17,34,28,21,34,30,21,100,98,86,30.52,30.41,30.27,10,3,0,6,1,,0.00,6,Fog,29
2013-1-18,35,32,28,35,32,28,100,100,96,30.34,30.28,30.24,10,3,1,6,2,,0.00,8,,29
2013-1-19,36,34,32,36,33,32,100,99,96,30.38,30.34,30.31,10,6,2,7,4,,0.00,8,,53
2013-1-20,39,36,33,37,35,33,100,98,87,30.38,30.32,30.24,10,6,2,8,3,,0.00,8,,47
2013-1-21,36,34,33,36,34,33,100,100,93,30.26,30.18,30.12,10,4,2,6,3,,0.00,8,,30
2013-1-22,39,34,30,35,32,30,100,97,76,30.13,30.03,29.90,10,6,1,5,2,,0.00,6,,35
2013-1-23,43,40,36,43,38,34,100,96,89,30.13,29.94,29.83,10,10,10,13,3,,0.48,7,Rain,217
2013-1-24,41,36,30,40,35,30,100,98,89,30.20,30.14,30.04,10,7,1,5,1,,0.20,7,Rain,45
2013-1-25,50,40,30,45,40,30,100,95,71,30.05,29.99,29.92,10,9,2,9,2,,0.07,6,Rain,237
2013-1-26,44,39,34,41,37,34,100,96,85,30.03,29.93,29.86,10,10,10,12,3,,0.42,7,Rain,231
2013-1-27,42,39,36,39,38,36,100,94,87,30.06,30.00,29.96,10,10,10,13,9,16,0.05,7,Rain,222
2013-1-28,43,40,37,40,38,36,93,90,87,30.09,30.04,30.00,10,10,10,20,13,28,0.02,5,Rain,238
2013-1-29,50,46,43,45,43,40,97,89,80,30.35,30.26,30.09,10,10,10,20,15,28,0.03,7,Rain,236
2013-1-30,48,47,46,47,46,45,100,94,90,30.37,30.34,30.31,10,10,10,15,10,20,0.13,8,Rain,238
2013-1-31,48,46,44,47,45,44,100,95,90,30.40,30.33,30.29,10,10,8,13,7,,0.04,8,Rain,221